Time;durP1;ratioP1;P1;durP2;ratioP2;P2;SDS_P1;SDS_P2;PMS_P1;PMS_P2;Temp;Humidity;BMP_temperature;BMP_pressure;BME280_temperature;BME280_humidity;BME280_pressure;Samples;Min_cycle;Max_cycle;Signal;HPM_P1;HPM_P2
2021/11/17 02:27:42;;;;;;;1.58;0.70;;;;;;;;;;5045945;28;20056;-56
2021/11/17 02:30:11;;;;;;;1.38;0.65;;;;;;;;;;5048967;28;20646;-57
2021/11/17 02:32:43;;;;;;;1.23;0.60;;;;;;;;;;5046852;28;20075;-57
2021/11/17 02:35:15;;;;;;;1.20;0.63;;;;;;;;;;5043932;28;20045;-57
2021/11/17 02:37:47;;;;;;;0.93;0.47;;;;;;;;;;5042940;28;20058;-55
2021/11/17 02:40:13;;;;;;;1.57;0.60;;;;;;;;;;5046000;28;20110;-55
2021/11/17 02:42:49;;;;;;;3.00;1.08;;;;;;;;;;5045113;28;20045;-57
2021/11/17 02:45:33;;;;;;;3.00;0.82;;;;;;;;;;5048777;28;20059;-55
2021/11/17 02:48:13;;;;;;;1.35;0.70;;;;;;;;;;5032156;28;20223;-54
2021/11/17 02:50:47;;;;;;;1.10;0.40;;;;;;;;;;5009151;28;20075;-55
2021/11/17 02:53:31;;;;;;;1.90;0.70;;;;;;;;;;5047794;28;20530;-56
2021/11/17 02:55:57;;;;;;;1.60;0.70;;;;;;;;;;5046166;28;20065;-54
2021/11/17 02:58:23;;;;;;;1.40;0.60;;;;;;;;;;5046390;28;20115;-56
2021/11/17 03:00:57;;;;;;;1.73;0.60;;;;;;;;;;5046621;28;20052;-57
2021/11/17 03:03:23;;;;;;;1.85;0.65;;;;;;;;;;5047757;28;20037;-57
2021/11/17 03:06:04;;;;;;;2.72;0.95;;;;;;;;;;5047549;28;20776;-55
2021/11/17 03:08:33;;;;;;;1.33;0.55;;;;;;;;;;5048839;28;20105;-55
2021/11/17 03:10:59;;;;;;;2.30;0.90;;;;;;;;;;5048742;28;20125;-56
2021/11/17 03:13:34;;;;;;;1.95;0.75;;;;;;;;;;5048280;28;20156;-56
2021/11/17 03:16:12;;;;;;;1.92;0.73;;;;;;;;;;5050395;28;20045;-54
2021/11/17 03:18:53;;;;;;;0.52;0.40;;;;;;;;;;5047494;28;20447;-57
2021/11/17 03:21:22;;;;;;;2.28;0.73;;;;;;;;;;5046925;28;20132;-58
2021/11/17 03:23:54;;;;;;;1.20;0.60;;;;;;;;;;5044739;28;20618;-56
2021/11/17 03:26:30;;;;;;;2.28;0.70;;;;;;;;;;5045709;28;21731;-56
2021/11/17 03:29:18;;;;;;;2.42;0.90;;;;;;;;;;5045019;28;20040;-56
2021/11/17 03:31:44;;;;;;;2.53;1.00;;;;;;;;;;5046029;28;20091;-57
2021/11/17 03:34:22;;;;;;;2.00;0.70;;;;;;;;;;5045515;28;20037;-57
2021/11/17 03:37:06;;;;;;;2.60;0.98;;;;;;;;;;5027836;28;20981;-57
2021/11/17 03:39:51;;;;;;;1.90;0.70;;;;;;;;;;5029011;28;20037;-58
2021/11/17 03:42:20;;;;;;;2.35;0.82;;;;;;;;;;5020037;28;20048;-55
2021/11/17 03:45:04;;;;;;;2.20;0.80;;;;;;;;;;5045604;28;20114;-57
2021/11/17 03:47:36;;;;;;;2.08;0.70;;;;;;;;;;5045161;28;20488;-54
2021/11/17 03:50:27;;;;;;;1.65;0.60;;;;;;;;;;5015469;28;20033;-58
2021/11/17 03:52:59;;;;;;;2.20;0.88;;;;;;;;;;5025400;28;20078;-57
2021/11/17 03:55:28;;;;;;;2.13;0.90;;;;;;;;;;5028911;28;20394;-55
2021/11/17 03:57:57;;;;;;;1.60;0.68;;;;;;;;;;5027763;28;20057;-55
2021/11/17 04:00:30;;;;;;;1.63;0.68;;;;;;;;;;5026559;28;20556;-56
2021/11/17 04:03:14;;;;;;;1.40;0.63;;;;;;;;;;5026830;28;20042;-57
2021/11/17 04:05:46;;;;;;;2.50;1.00;;;;;;;;;;5026239;28;20877;-59
2021/11/17 04:08:12;;;;;;;2.50;0.80;;;;;;;;;;5032528;28;20041;-58
2021/11/17 04:10:47;;;;;;;1.58;0.70;;;;;;;;;;5020984;28;20092;-56
2021/11/17 04:13:15;;;;;;;3.75;1.70;;;;;;;;;;5041673;28;20038;-58
2021/11/17 04:15:48;;;;;;;1.50;0.65;;;;;;;;;;5041763;28;20518;-54
2021/11/17 04:18:13;;;;;;;2.67;0.88;;;;;;;;;;5021493;28;20601;-58
2021/11/17 04:20:46;;;;;;;2.45;1.20;;;;;;;;;;5020378;28;20040;-57
2021/11/17 04:23:18;;;;;;;1.60;0.75;;;;;;;;;;5021457;28;20041;-56
2021/11/17 04:25:50;;;;;;;1.20;0.50;;;;;;;;;;5029785;28;20041;-57
2021/11/17 04:28:34;;;;;;;2.13;0.77;;;;;;;;;;5036622;28;20048;-53
2021/11/17 04:31:08;;;;;;;1.27;0.50;;;;;;;;;;5045851;28;20099;-56
2021/11/17 04:33:43;;;;;;;1.40;0.70;;;;;;;;;;5046564;28;20060;-56
2021/11/17 04:36:09;;;;;;;1.60;0.70;;;;;;;;;;5045930;28;20041;-57
2021/11/17 04:38:45;;;;;;;1.73;0.80;;;;;;;;;;5046010;28;21743;-56
2021/11/17 04:41:20;;;;;;;2.33;1.05;;;;;;;;;;5045602;28;20807;-59
2021/11/17 04:44:24;;;;;;;1.88;0.77;;;;;;;;;;5026728;28;20067;-56
2021/11/17 04:46:50;;;;;;;;;;;;;;;;;;4930823;28;20091;-57
2021/11/17 04:49:34;;;;;;;2.83;1.13;;;;;;;;;;4939860;28;19918;-57
2021/11/17 04:52:19;;;;;;;1.13;0.70;;;;;;;;;;4986863;28;20046;-57
2021/11/17 04:54:54;;;;;;;2.58;1.02;;;;;;;;;;5045341;28;20045;-56
2021/11/17 04:57:20;;;;;;;1.33;0.63;;;;;;;;;;5028638;28;20041;-56
2021/11/17 04:59:46;;;;;;;1.77;0.70;;;;;;;;;;5045097;28;20041;-57
2021/11/17 05:02:27;;;;;;;2.03;0.80;;;;;;;;;;5048048;28;20428;-56
2021/11/17 05:04:53;;;;;;;1.60;0.60;;;;;;;;;;5047278;28;20076;-57
2021/11/17 05:07:28;;;;;;;1.63;0.80;;;;;;;;;;5044689;28;22444;-53
2021/11/17 05:10:06;;;;;;;3.72;1.27;;;;;;;;;;5044074;28;20045;-53
2021/11/17 05:12:52;;;;;;;2.13;0.80;;;;;;;;;;5043298;28;20041;-55
2021/11/17 05:15:27;;;;;;;2.72;1.15;;;;;;;;;;5034585;28;20079;-56
2021/11/17 05:18:03;;;;;;;3.22;1.02;;;;;;;;;;5043730;28;20041;-53
2021/11/17 05:20:29;;;;;;;3.47;0.90;;;;;;;;;;5044210;28;20056;-58
2021/11/17 05:23:13;;;;;;;4.50;0.75;;;;;;;;;;5046207;28;20109;-52
2021/11/17 05:25:39;;;;;;;3.10;1.05;;;;;;;;;;5046586;28;20041;-55
2021/11/17 05:28:16;;;;;;;2.40;0.95;;;;;;;;;;5048945;28;20540;-53
2021/11/17 05:31:00;;;;;;;1.17;0.63;;;;;;;;;;5035167;28;20045;-56
2021/11/17 05:33:34;;;;;;;2.90;0.95;;;;;;;;;;5027414;28;20041;-56
2021/11/17 05:36:00;;;;;;;1.33;0.65;;;;;;;;;;5011987;28;20072;-57
2021/11/17 05:38:44;;;;;;;0.88;0.45;;;;;;;;;;5029987;28;20037;-53
2021/11/17 05:41:13;;;;;;;1.77;0.70;;;;;;;;;;5022534;28;20101;-57
2021/11/17 05:43:48;;;;;;;2.65;1.00;;;;;;;;;;5038514;28;20527;-56
2021/11/17 05:46:20;;;;;;;3.45;1.33;;;;;;;;;;5028208;28;20650;-56
2021/11/17 05:48:52;;;;;;;2.33;0.75;;;;;;;;;;5047027;28;20040;-56
2021/11/17 05:51:28;;;;;;;1.13;0.52;;;;;;;;;;5047737;28;21532;-57
2021/11/17 05:54:08;;;;;;;2.70;1.25;;;;;;;;;;5025683;28;20358;-54
2021/11/17 05:56:34;;;;;;;2.47;0.90;;;;;;;;;;5027335;28;20124;-56
2021/11/17 05:59:15;;;;;;;2.45;0.75;;;;;;;;;;5029530;28;21842;-56
2021/11/17 06:01:47;;;;;;;2.50;0.93;;;;;;;;;;5027967;28;20036;-53
2021/11/17 06:04:12;;;;;;;1.42;0.50;;;;;;;;;;5034839;28;20054;-53
2021/11/17 06:06:39;;;;;;;3.22;1.05;;;;;;;;;;5020850;28;20043;-55
2021/11/17 06:09:07;;;;;;;2.10;0.82;;;;;;;;;;5021626;28;20042;-56
2021/11/17 06:11:36;;;;;;;1.88;0.90;;;;;;;;;;5021346;28;20072;-54
2021/11/17 06:14:03;;;;;;;2.20;1.05;;;;;;;;;;5022054;28;20041;-56
2021/11/17 06:16:29;;;;;;;3.67;0.98;;;;;;;;;;5020402;28;20041;-57
2021/11/17 06:18:56;;;;;;;1.77;0.80;;;;;;;;;;5036112;28;20394;-56
2021/11/17 06:21:22;;;;;;;4.75;1.00;;;;;;;;;;5003658;28;20634;-55
2021/11/17 06:23:56;;;;;;;1.77;0.80;;;;;;;;;;5003148;28;20096;-55
2021/11/17 06:26:24;;;;;;;1.20;0.60;;;;;;;;;;5020063;28;20053;-54
2021/11/17 06:29:00;;;;;;;1.33;0.52;;;;;;;;;;5021316;28;20140;-57
2021/11/17 06:31:27;;;;;;;1.40;0.60;;;;;;;;;;5036946;28;20041;-56
2021/11/17 06:33:54;;;;;;;2.50;0.93;;;;;;;;;;5021951;28;20048;-56
2021/11/17 06:36:20;;;;;;;1.25;0.65;;;;;;;;;;5021971;28;20207;-57
2021/11/17 06:38:47;;;;;;;1.23;0.75;;;;;;;;;;5025937;28;20538;-55
2021/11/17 06:41:14;;;;;;;2.53;1.17;;;;;;;;;;5021339;28;20119;-58
2021/11/17 06:43:40;;;;;;;2.47;1.00;;;;;;;;;;5021214;28;20033;-52
2021/11/17 06:46:06;;;;;;;2.65;1.13;;;;;;;;;;5020140;28;20130;-55
2021/11/17 06:48:33;;;;;;;1.45;0.73;;;;;;;;;;5021648;28;20116;-57
2021/11/17 06:51:00;;;;;;;1.05;0.55;;;;;;;;;;5022028;28;20071;-54
2021/11/17 06:53:27;;;;;;;3.42;1.30;;;;;;;;;;5021432;28;20405;-54
2021/11/17 06:55:54;;;;;;;2.75;1.02;;;;;;;;;;5020912;28;20034;-55
2021/11/17 06:58:20;;;;;;;3.05;1.13;;;;;;;;;;5005040;28;20091;-54
2021/11/17 07:00:47;;;;;;;3.22;1.35;;;;;;;;;;5019983;28;20077;-55
2021/11/17 07:03:13;;;;;;;2.67;1.13;;;;;;;;;;5021282;28;20064;-55
2021/11/17 07:05:39;;;;;;;3.75;1.35;;;;;;;;;;5019407;28;20401;-53
2021/11/17 07:08:06;;;;;;;2.88;1.08;;;;;;;;;;5021332;28;20451;-56
2021/11/17 07:10:33;;;;;;;3.65;1.40;;;;;;;;;;5020232;28;20037;-55
2021/11/17 07:12:59;;;;;;;2.65;1.05;;;;;;;;;;5021420;28;20049;-54
2021/11/17 07:15:27;;;;;;;4.13;1.65;;;;;;;;;;5020396;28;20046;-54
2021/11/17 07:17:53;;;;;;;5.50;1.67;;;;;;;;;;5020099;28;20041;-56
2021/11/17 07:20:20;;;;;;;3.30;1.48;;;;;;;;;;5021454;28;20045;-54
2021/11/17 07:22:46;;;;;;;3.72;1.30;;;;;;;;;;5021417;28;20665;-55
2021/11/17 07:25:13;;;;;;;3.08;1.23;;;;;;;;;;5019364;28;20053;-55
2021/11/17 07:27:39;;;;;;;4.18;1.52;;;;;;;;;;5018306;28;20480;-55
2021/11/17 07:30:06;;;;;;;2.25;1.00;;;;;;;;;;5020366;28;20044;-56
2021/11/17 07:32:32;;;;;;;4.57;1.63;;;;;;;;;;5006536;28;20053;-57
2021/11/17 07:35:01;;;;;;;3.33;1.40;;;;;;;;;;5021060;28;20516;-55
2021/11/17 07:37:27;;;;;;;3.13;1.17;;;;;;;;;;5019753;28;20152;-54
2021/11/17 07:39:52;;;;;;;2.70;0.90;;;;;;;;;;5019957;28;20391;-56
2021/11/17 07:42:18;;;;;;;2.63;1.10;;;;;;;;;;5018696;28;20064;-56
2021/11/17 07:44:45;;;;;;;2.28;0.95;;;;;;;;;;5021315;28;20045;-53
2021/11/17 07:47:11;;;;;;;1.90;0.82;;;;;;;;;;5019430;28;20034;-56
2021/11/17 07:49:37;;;;;;;1.60;0.80;;;;;;;;;;5020884;28;20095;-56
2021/11/17 07:52:04;;;;;;;3.30;1.30;;;;;;;;;;5018998;28;20048;-56
2021/11/17 07:54:30;;;;;;;6.40;1.40;;;;;;;;;;5018777;28;20176;-53
2021/11/17 07:56:56;;;;;;;3.63;0.90;;;;;;;;;;5018690;28;20037;-56
2021/11/17 07:59:23;;;;;;;2.58;1.05;;;;;;;;;;5018934;28;20042;-55
2021/11/17 08:01:50;;;;;;;5.72;1.30;;;;;;;;;;5020152;28;20041;-54
2021/11/17 08:04:17;;;;;;;3.90;1.45;;;;;;;;;;5020280;28;20524;-55
2021/11/17 08:06:44;;;;;;;2.55;0.98;;;;;;;;;;5045879;28;20140;-55
2021/11/17 08:09:11;;;;;;;2.97;1.13;;;;;;;;;;5050289;28;20139;-53
2021/11/17 08:11:39;;;;;;;2.75;1.17;;;;;;;;;;5050239;28;20052;-55
2021/11/17 08:14:04;;;;;;;2.60;1.15;;;;;;;;;;5048068;28;20041;-55
2021/11/17 08:16:30;;;;;;;2.63;1.10;;;;;;;;;;5029165;28;20407;-57
2021/11/17 08:18:56;;;;;;;4.35;1.08;;;;;;;;;;5046640;28;20055;-56
2021/11/17 08:21:22;;;;;;;2.70;1.05;;;;;;;;;;5036789;28;20733;-55
2021/11/17 08:23:48;;;;;;;3.42;1.33;;;;;;;;;;5026002;28;20051;-55
2021/11/17 08:26:15;;;;;;;2.22;1.00;;;;;;;;;;5033132;28;20433;-55
2021/11/17 08:28:41;;;;;;;2.25;1.10;;;;;;;;;;5029526;28;20523;-56
2021/11/17 08:31:08;;;;;;;3.03;1.20;;;;;;;;;;5033039;28;20071;-57
2021/11/17 08:33:34;;;;;;;2.00;0.80;;;;;;;;;;5007056;28;20048;-52
2021/11/17 08:36:02;;;;;;;2.58;1.02;;;;;;;;;;5025908;28;20068;-56
2021/11/17 08:38:29;;;;;;;2.80;0.95;;;;;;;;;;5026608;28;20048;-53
2021/11/17 08:40:58;;;;;;;2.55;1.17;;;;;;;;;;5030541;28;20044;-55
2021/11/17 08:43:25;;;;;;;2.63;0.90;;;;;;;;;;5001189;28;20126;-55
2021/11/17 08:45:52;;;;;;;2.47;0.80;;;;;;;;;;5022426;28;20600;-54
2021/11/17 08:48:19;;;;;;;1.88;0.88;;;;;;;;;;5020485;28;20047;-55
2021/11/17 08:50:45;;;;;;;2.50;0.90;;;;;;;;;;5022679;28;20034;-55
2021/11/17 08:53:13;;;;;;;3.65;1.38;;;;;;;;;;5004028;28;20045;-55
2021/11/17 08:55:42;;;;;;;3.85;1.10;;;;;;;;;;5022575;28;20038;-55
2021/11/17 08:58:08;;;;;;;3.10;1.17;;;;;;;;;;5022271;28;20041;-55
2021/11/17 09:00:35;;;;;;;3.08;0.90;;;;;;;;;;5024146;28;20029;-53
2021/11/17 09:03:02;;;;;;;2.83;0.90;;;;;;;;;;5025237;28;20043;-54
2021/11/17 09:05:31;;;;;;;4.15;1.20;;;;;;;;;;5023142;28;20053;-52
2021/11/17 09:07:59;;;;;;;4.72;1.30;;;;;;;;;;5022471;28;20037;-56
2021/11/17 09:10:28;;;;;;;3.05;1.10;;;;;;;;;;5022749;28;20180;-53
2021/11/17 09:12:55;;;;;;;3.13;0.85;;;;;;;;;;5023305;28;20078;-56
2021/11/17 09:15:23;;;;;;;2.60;1.05;;;;;;;;;;5023161;28;20390;-53
2021/11/17 09:17:48;;;;;;;4.80;1.20;;;;;;;;;;5023365;28;20128;-58
2021/11/17 09:20:15;;;;;;;2.42;0.90;;;;;;;;;;5023788;28;20082;-54
2021/11/17 09:22:42;;;;;;;2.47;0.95;;;;;;;;;;5021426;28;20156;-58
2021/11/17 09:25:08;;;;;;;1.98;0.77;;;;;;;;;;5023794;28;20565;-56
2021/11/17 09:27:35;;;;;;;2.55;0.95;;;;;;;;;;5022555;28;21868;-51
2021/11/17 09:30:01;;;;;;;1.92;0.85;;;;;;;;;;5022657;28;20048;-55
2021/11/17 09:32:31;;;;;;;2.15;1.00;;;;;;;;;;5021528;28;20490;-55
2021/11/17 09:35:01;;;;;;;2.90;1.15;;;;;;;;;;5020634;28;20514;-56
2021/11/17 09:37:27;;;;;;;3.10;1.27;;;;;;;;;;5020893;28;20038;-56
2021/11/17 09:39:55;;;;;;;2.58;1.15;;;;;;;;;;5022340;28;20048;-58
2021/11/17 09:42:21;;;;;;;3.50;1.17;;;;;;;;;;5020490;28;20095;-55
2021/11/17 09:44:47;;;;;;;2.88;1.02;;;;;;;;;;5022753;28;20045;-53
2021/11/17 09:47:17;;;;;;;3.38;1.10;;;;;;;;;;5023123;28;20038;-54
2021/11/17 09:49:46;;;;;;;2.22;0.98;;;;;;;;;;5049402;28;20040;-56
2021/11/17 09:52:14;;;;;;;2.92;0.82;;;;;;;;;;5050269;28;20104;-56
2021/11/17 09:55:09;;;;;;;1.55;0.80;;;;;;;;;;5047285;28;20052;-51
2021/11/17 09:57:37;;;;;;;2.88;1.02;;;;;;;;;;4987489;28;20038;-54
2021/11/17 10:00:18;;;;;;;2.17;0.90;;;;;;;;;;5019782;28;20036;-52
2021/11/17 10:02:44;;;;;;;2.63;1.17;;;;;;;;;;5048951;28;20061;-54
2021/11/17 10:05:21;;;;;;;2.38;1.00;;;;;;;;;;5047996;28;20830;-52
2021/11/17 10:13:22;;;;;;;4.70;1.13;;;;;;;;;;5044988;28;20041;-52
2021/11/17 10:15:53;;;;;;;2.42;1.10;;;;;;;;;;5049160;28;20045;-54
2021/11/17 10:18:40;;;;;;;4.72;1.85;;;;;;;;;;5049468;28;20041;-54
2021/11/17 10:21:11;;;;;;;1.65;0.73;;;;;;;;;;5048736;28;20574;-55
2021/11/17 10:23:43;;;;;;;1.75;0.90;;;;;;;;;;5048070;28;20037;-54
2021/11/17 10:26:11;;;;;;;2.45;1.10;;;;;;;;;;5047555;28;20052;-56
2021/11/17 10:28:40;;;;;;;2.70;1.13;;;;;;;;;;5046409;28;20114;-57
2021/11/17 10:31:06;;;;;;;3.25;1.23;;;;;;;;;;5046631;28;20144;-55
2021/11/17 10:33:47;;;;;;;2.65;1.10;;;;;;;;;;5046405;28;20041;-52
2021/11/17 10:36:12;;;;;;;1.85;1.10;;;;;;;;;;5046228;28;20094;-55
2021/11/17 10:38:42;;;;;;;3.47;1.27;;;;;;;;;;5044345;28;20045;-57
2021/11/17 10:41:19;;;;;;;2.40;0.90;;;;;;;;;;5046775;28;20047;-56
2021/11/17 10:43:53;;;;;;;3.83;1.48;;;;;;;;;;5046441;28;20113;-54
2021/11/17 10:46:21;;;;;;;0.65;0.38;;;;;;;;;;5028252;28;20047;-52
2021/11/17 10:48:51;;;;;;;1.83;0.70;;;;;;;;;;5046754;28;20044;-53
2021/11/17 10:51:22;;;;;;;2.13;0.82;;;;;;;;;;5047757;28;20040;-54
2021/11/17 10:53:49;;;;;;;1.45;0.50;;;;;;;;;;5030844;28;20885;-57
2021/11/17 10:56:17;;;;;;;0.93;0.60;;;;;;;;;;5026308;28;20045;-55
2021/11/17 10:58:44;;;;;;;1.08;0.52;;;;;;;;;;5046492;28;20045;-56
2021/11/17 11:01:21;;;;;;;1.45;0.57;;;;;;;;;;5029631;28;20124;-54
2021/11/17 11:03:49;;;;;;;2.17;1.00;;;;;;;;;;5028550;28;20041;-57
2021/11/17 11:06:24;;;;;;;1.48;0.70;;;;;;;;;;5042330;28;20124;-55
2021/11/17 11:09:08;;;;;;;1.23;0.63;;;;;;;;;;5026541;28;20413;-55
2021/11/17 11:11:36;;;;;;;2.13;0.85;;;;;;;;;;5019346;28;20124;-55
2021/11/17 11:14:22;;;;;;;1.35;0.50;;;;;;;;;;5020430;28;20496;-56
2021/11/17 11:16:50;;;;;;;1.00;0.50;;;;;;;;;;5045723;28;20059;-56
2021/11/17 11:19:17;;;;;;;1.48;0.70;;;;;;;;;;5046843;28;20045;-56
2021/11/17 11:21:43;;;;;;;2.05;0.93;;;;;;;;;;5046003;28;20640;-56
2021/11/17 11:24:09;;;;;;;1.95;0.85;;;;;;;;;;5047067;28;20393;-56
2021/11/17 11:26:53;;;;;;;1.52;0.70;;;;;;;;;;5044511;28;20049;-56
2021/11/17 11:29:22;;;;;;;2.00;0.77;;;;;;;;;;5044980;28;20045;-55
2021/11/17 11:31:49;;;;;;;1.85;0.70;;;;;;;;;;5045912;28;20045;-56
2021/11/17 11:34:15;;;;;;;1.65;0.75;;;;;;;;;;5045635;28;20040;-56
2021/11/17 11:36:46;;;;;;;1.67;0.65;;;;;;;;;;5046039;28;20055;-55
2021/11/17 11:39:11;;;;;;;1.85;0.80;;;;;;;;;;5046423;28;20094;-54
2021/11/17 11:41:45;;;;;;;2.70;0.90;;;;;;;;;;5042600;28;21175;-55
2021/11/17 11:44:17;;;;;;;2.40;0.80;;;;;;;;;;5045143;28;20036;-52
2021/11/17 11:46:44;;;;;;;2.25;0.85;;;;;;;;;;5043768;28;20049;-56
2021/11/17 11:49:31;;;;;;;3.05;0.80;;;;;;;;;;5046899;28;20044;-55
2021/11/17 11:52:15;;;;;;;1.55;0.70;;;;;;;;;;5046675;28;20076;-53
2021/11/17 11:54:50;;;;;;;3.65;0.90;;;;;;;;;;5046288;28;20663;-53
2021/11/17 11:57:34;;;;;;;2.25;0.95;;;;;;;;;;5046146;28;20456;-57
2021/11/17 12:00:00;;;;;;;;;;;;;;;;;;5028199;28;20033;-56
2021/11/17 12:02:27;;;;;;;1.75;0.80;;;;;;;;;;5045085;28;20373;-58
2021/11/17 12:04:55;;;;;;;1.30;0.60;;;;;;;;;;5045730;28;20584;-53
2021/11/17 12:07:47;;;;;;;6.85;0.73;;;;;;;;;;5045771;28;20032;-55
2021/11/17 12:10:22;;;;;;;1.60;0.75;;;;;;;;;;5012209;28;20666;-55
2021/11/17 12:12:48;;;;;;;4.45;0.70;;;;;;;;;;5045689;28;20024;-55
2021/11/17 12:15:20;;;;;;;1.42;0.60;;;;;;;;;;5044680;28;20045;-54
2021/11/17 12:17:46;;;;;;;2.88;0.90;;;;;;;;;;5044883;28;20051;-56
2021/11/17 12:20:18;;;;;;;1.50;0.73;;;;;;;;;;5046830;28;20955;-56
2021/11/17 12:22:49;;;;;;;2.08;0.85;;;;;;;;;;5037165;28;20120;-55
2021/11/17 12:25:21;;;;;;;2.25;1.08;;;;;;;;;;5032199;28;20052;-57
2021/11/17 12:27:49;;;;;;;1.55;0.70;;;;;;;;;;5046773;28;20063;-55
2021/11/17 12:30:31;;;;;;;2.28;0.95;;;;;;;;;;5047019;28;20037;-54
2021/11/17 12:32:59;;;;;;;1.38;0.80;;;;;;;;;;5043524;28;20456;-56
2021/11/17 12:35:33;;;;;;;2.58;1.27;;;;;;;;;;5042547;28;20119;-56
2021/11/17 12:37:59;;;;;;;1.77;0.80;;;;;;;;;;5046387;28;20084;-55
2021/11/17 12:40:34;;;;;;;1.25;0.70;;;;;;;;;;5045511;28;20183;-56
2021/11/17 12:43:01;;;;;;;1.35;0.68;;;;;;;;;;5045535;28;20045;-55
2021/11/17 12:45:33;;;;;;;0.68;0.47;;;;;;;;;;5044552;28;20103;-56
2021/11/17 12:48:00;;;;;;;2.40;1.00;;;;;;;;;;5048022;28;20037;-55
2021/11/17 12:50:29;;;;;;;2.35;1.00;;;;;;;;;;5045359;28;20048;-56
2021/11/17 12:53:05;;;;;;;1.67;0.88;;;;;;;;;;5047416;28;20088;-56
2021/11/17 12:55:31;;;;;;;1.42;0.80;;;;;;;;;;5046237;28;20082;-56
2021/11/17 12:58:02;;;;;;;2.20;0.82;;;;;;;;;;5045227;28;20541;-55
2021/11/17 13:00:35;;;;;;;2.25;0.90;;;;;;;;;;5044430;28;20047;-54
2021/11/17 13:03:03;;;;;;;1.27;0.73;;;;;;;;;;5046141;28;20091;-53
2021/11/17 13:05:34;;;;;;;8.07;0.93;;;;;;;;;;5026389;28;20652;-54
2021/11/17 13:08:09;;;;;;;1.85;0.85;;;;;;;;;;5045348;28;20040;-55
2021/11/17 13:10:43;;;;;;;2.90;1.13;;;;;;;;;;5042590;28;20043;-53
2021/11/17 13:13:09;;;;;;;7.57;0.70;;;;;;;;;;5042599;28;20505;-57
2021/11/17 13:15:40;;;;;;;1.50;0.80;;;;;;;;;;5043087;28;20090;-55
2021/11/17 13:18:06;;;;;;;5.38;0.73;;;;;;;;;;5028061;28;20405;-54
2021/11/17 13:20:38;;;;;;;1.67;0.85;;;;;;;;;;5043036;28;20041;-55
2021/11/17 13:23:10;;;;;;;4.20;1.42;;;;;;;;;;5041153;28;20131;-54
2021/11/17 13:26:00;;;;;;;15.45;1.25;;;;;;;;;;5039821;28;20449;-56
2021/11/17 13:28:43;;;;;;;4.75;2.00;;;;;;;;;;5042623;28;20037;-53
2021/11/17 13:31:28;;;;;;;5.45;2.03;;;;;;;;;;5040813;28;20072;-53
2021/11/17 13:34:05;;;;;;;3.25;1.13;;;;;;;;;;5010636;28;20080;-54
2021/11/17 13:36:49;;;;;;;3.85;1.35;;;;;;;;;;5018964;28;20041;-54
2021/11/17 13:39:17;;;;;;;1.90;0.80;;;;;;;;;;5025838;28;20029;-54
2021/11/17 13:41:44;;;;;;;1.88;0.85;;;;;;;;;;5043407;28;20072;-56
2021/11/17 13:44:12;;;;;;;1.75;0.90;;;;;;;;;;5046691;28;20066;-54
2021/11/17 13:46:49;;;;;;;2.03;0.95;;;;;;;;;;5047468;28;21107;-54
2021/11/17 13:49:14;;;;;;;4.18;1.40;;;;;;;;;;5050824;28;20036;-55
2021/11/17 13:51:40;;;;;;;2.25;0.95;;;;;;;;;;5047976;28;20044;-55
2021/11/17 13:54:06;;;;;;;15.65;1.75;;;;;;;;;;5047296;28;20048;-53
2021/11/17 13:56:37;;;;;;;2.17;1.10;;;;;;;;;;5046835;28;20118;-53
2021/11/17 13:59:03;;;;;;;2.33;0.98;;;;;;;;;;5042512;28;20131;-54
2021/11/17 14:01:29;;;;;;;3.05;1.50;;;;;;;;;;5041049;28;20394;-56
2021/11/17 14:03:55;;;;;;;2.50;1.15;;;;;;;;;;5046657;28;20044;-55
2021/11/17 14:06:21;;;;;;;4.78;1.38;;;;;;;;;;5046351;28;20098;-53
2021/11/17 14:08:48;;;;;;;10.38;1.00;;;;;;;;;;5048532;28;20040;-56
2021/11/17 14:11:15;;;;;;;2.45;1.02;;;;;;;;;;5031619;28;20049;-54
2021/11/17 14:13:42;;;;;;;3.67;1.33;;;;;;;;;;5046687;28;20044;-56
2021/11/17 14:16:08;;;;;;;25.83;1.45;;;;;;;;;;5050290;28;20025;-54
2021/11/17 14:18:34;;;;;;;2.47;1.02;;;;;;;;;;5048051;28;20033;-52
2021/11/17 14:21:01;;;;;;;4.13;1.38;;;;;;;;;;5047941;28;20160;-52
2021/11/17 14:23:27;;;;;;;3.05;1.08;;;;;;;;;;5046878;28;20028;-53
2021/11/17 14:25:53;;;;;;;1.42;0.70;;;;;;;;;;5047414;28;20157;-53
2021/11/17 14:28:21;;;;;;;8.00;1.08;;;;;;;;;;5046731;28;20065;-56
2021/11/17 14:30:56;;;;;;;5.88;1.27;;;;;;;;;;5047608;28;20041;-53
2021/11/17 14:33:25;;;;;;;2.97;1.23;;;;;;;;;;5047345;28;20045;-57
2021/11/17 14:35:51;;;;;;;15.38;0.82;;;;;;;;;;5048012;28;20102;-52
2021/11/17 14:38:18;;;;;;;5.60;1.58;;;;;;;;;;5048155;28;20043;-55
2021/11/17 14:40:48;;;;;;;3.80;1.50;;;;;;;;;;5045244;28;20048;-55
2021/11/17 14:43:16;;;;;;;1.75;0.85;;;;;;;;;;5030350;28;20155;-55
2021/11/17 14:45:43;;;;;;;3.83;1.00;;;;;;;;;;5046729;28;20125;-55
2021/11/17 14:48:09;;;;;;;5.80;1.42;;;;;;;;;;5048915;28;20033;-57
2021/11/17 14:50:35;;;;;;;2.63;1.08;;;;;;;;;;5030340;28;20076;-56
2021/11/17 14:53:01;;;;;;;3.45;1.40;;;;;;;;;;5044645;28;20142;-53
2021/11/17 14:55:28;;;;;;;2.78;1.08;;;;;;;;;;5043369;28;20081;-53
2021/11/17 14:57:54;;;;;;;1.73;0.73;;;;;;;;;;5042858;28;20037;-53
2021/11/17 15:00:25;;;;;;;3.65;1.17;;;;;;;;;;5042547;28;20048;-54
2021/11/17 15:02:54;;;;;;;2.40;1.20;;;;;;;;;;5043579;28;20632;-55
2021/11/17 15:05:20;;;;;;;0.85;0.52;;;;;;;;;;5042832;28;20572;-54
2021/11/17 15:07:46;;;;;;;7.65;1.25;;;;;;;;;;5043609;28;20148;-56
2021/11/17 15:10:14;;;;;;;1.65;0.73;;;;;;;;;;5025459;28;20055;-56
2021/11/17 15:12:40;;;;;;;2.53;1.30;;;;;;;;;;5033717;28;20048;-53
2021/11/17 15:15:24;;;;;;;2.25;1.00;;;;;;;;;;5027435;28;20055;-54
2021/11/17 15:17:50;;;;;;;2.03;1.02;;;;;;;;;;5043723;28;20044;-56
2021/11/17 15:20:16;;;;;;;1.90;0.85;;;;;;;;;;5043041;28;20052;-52
2021/11/17 15:22:44;;;;;;;1.77;0.77;;;;;;;;;;5043314;28;20108;-54
2021/11/17 15:25:14;;;;;;;2.40;1.10;;;;;;;;;;5044546;28;20160;-53
2021/11/17 15:27:42;;;;;;;4.57;1.40;;;;;;;;;;5042854;28;20049;-56
2021/11/17 15:30:16;;;;;;;1.88;0.80;;;;;;;;;;5042876;28;20036;-56
2021/11/17 15:32:43;;;;;;;3.47;1.35;;;;;;;;;;5028409;28;20045;-55
2021/11/17 15:35:10;;;;;;;1.58;0.77;;;;;;;;;;5003651;28;20050;-54
2021/11/17 15:37:37;;;;;;;6.97;1.10;;;;;;;;;;5021942;28;20049;-56
2021/11/17 15:40:05;;;;;;;3.00;1.42;;;;;;;;;;5023115;28;20034;-52
2021/11/17 15:42:32;;;;;;;2.20;1.10;;;;;;;;;;5032465;28;20044;-56
2021/11/17 15:44:57;;;;;;;1.83;0.90;;;;;;;;;;5042534;28;20045;-55
2021/11/17 15:47:26;;;;;;;2.47;1.20;;;;;;;;;;5041215;28;20508;-53
2021/11/17 15:49:52;;;;;;;10.52;1.75;;;;;;;;;;5035202;28;20038;-55
2021/11/17 15:52:18;;;;;;;1.98;0.80;;;;;;;;;;5014434;28;20083;-55
2021/11/17 15:54:44;;;;;;;3.58;1.33;;;;;;;;;;5015162;28;20443;-54
2021/11/17 15:57:10;;;;;;;3.13;1.25;;;;;;;;;;5015479;28;20741;-57
2021/11/17 15:59:35;;;;;;;1.83;0.85;;;;;;;;;;5014444;28;20041;-53
2021/11/17 16:02:02;;;;;;;4.28;1.50;;;;;;;;;;5014567;28;20484;-56
2021/11/17 16:04:30;;;;;;;1.92;1.10;;;;;;;;;;5014441;28;20045;-56
2021/11/17 16:06:59;;;;;;;2.50;1.10;;;;;;;;;;5012665;28;20072;-53
2021/11/17 16:09:27;;;;;;;5.53;1.27;;;;;;;;;;5011090;28;20107;-53
2021/11/17 16:11:53;;;;;;;3.08;1.17;;;;;;;;;;5012151;28;21022;-56
2021/11/17 16:14:19;;;;;;;2.45;0.80;;;;;;;;;;5011531;28;20492;-53
2021/11/17 16:16:45;;;;;;;4.45;0.98;;;;;;;;;;5013345;28;20462;-56
2021/11/17 16:19:13;;;;;;;2.28;0.98;;;;;;;;;;5013978;28;20473;-56
2021/11/17 16:21:39;;;;;;;5.32;1.00;;;;;;;;;;5030334;28;20049;-51
2021/11/17 16:26:50;;;;;;;2.63;1.02;;;;;;;;;;5026730;28;20558;-54
2021/11/17 16:29:16;;;;;;;3.45;1.05;;;;;;;;;;5021020;28;20033;-55
2021/11/17 16:31:43;;;;;;;1.85;0.73;;;;;;;;;;5019926;28;20047;-55
2021/11/17 16:34:10;;;;;;;5.55;1.00;;;;;;;;;;5020792;28;20045;-52
2021/11/17 16:36:42;;;;;;;2.15;0.73;;;;;;;;;;5019553;28;20082;-57
2021/11/17 16:39:09;;;;;;;2.08;0.77;;;;;;;;;;5021193;28;20279;-55
2021/11/17 16:41:35;;;;;;;2.05;0.88;;;;;;;;;;5020424;28;20045;-56
2021/11/17 16:44:02;;;;;;;2.08;0.80;;;;;;;;;;5020955;28;20045;-56
2021/11/17 16:46:28;;;;;;;2.78;1.08;;;;;;;;;;5027978;28;20623;-55
2021/11/17 16:48:55;;;;;;;2.15;0.73;;;;;;;;;;5016645;28;20044;-52
2021/11/17 16:51:21;;;;;;;2.53;0.90;;;;;;;;;;5014635;28;20069;-52
2021/11/17 16:53:47;;;;;;;5.88;1.15;;;;;;;;;;5013288;28;20476;-55
2021/11/17 16:56:14;;;;;;;3.50;1.02;;;;;;;;;;5031363;28;20077;-56
2021/11/17 16:58:40;;;;;;;4.22;1.17;;;;;;;;;;5019825;28;20045;-56
2021/11/17 17:01:07;;;;;;;2.33;0.90;;;;;;;;;;5020066;28;20033;-54
2021/11/17 17:03:35;;;;;;;3.50;1.20;;;;;;;;;;5019859;28;20048;-56
2021/11/17 17:06:03;;;;;;;2.47;1.02;;;;;;;;;;5018228;28;20064;-56
2021/11/17 17:08:30;;;;;;;2.50;0.70;;;;;;;;;;5019609;28;20834;-56
2021/11/17 17:10:56;;;;;;;3.75;0.93;;;;;;;;;;5019311;28;20296;-56
2021/11/17 17:13:22;;;;;;;3.67;1.00;;;;;;;;;;5019255;28;20774;-51
2021/11/17 17:15:48;;;;;;;2.00;0.60;;;;;;;;;;5019398;28;20502;-55
2021/11/17 17:18:16;;;;;;;3.05;0.73;;;;;;;;;;5020965;28;20184;-56
2021/11/17 17:20:43;;;;;;;2.75;0.80;;;;;;;;;;5022020;28;20041;-55
2021/11/17 17:23:12;;;;;;;1.08;0.47;;;;;;;;;;5024094;28;20037;-54
2021/11/17 17:25:41;;;;;;;3.05;1.02;;;;;;;;;;5022473;28;20106;-54
2021/11/17 17:28:09;;;;;;;1.85;0.60;;;;;;;;;;5025228;28;20061;-54
2021/11/17 17:30:35;;;;;;;2.53;1.05;;;;;;;;;;5024454;28;20041;-52
2021/11/17 17:33:02;;;;;;;2.55;0.90;;;;;;;;;;5027015;28;20056;-55
2021/11/17 17:35:28;;;;;;;1.40;0.57;;;;;;;;;;5025853;28;20045;-55